Time;durP1;ratioP1;P1;durP2;ratioP2;P2;SDS_P1;SDS_P2;PMS_P1;PMS_P2;Temp;Humidity;BMP_temperature;BMP_pressure;BME280_temperature;BME280_humidity;BME280_pressure;Samples;Min_cycle;Max_cycle;Signal;HPM_P1;HPM_P2
2023/05/27 00:02:42;;;;;;;7.78;4.13;;;;;;;;;;5009666;28;20054;-65
2023/05/27 00:05:14;;;;;;;17.02;4.32;;;;;;;;;;5009418;28;20061;-65
2023/05/27 00:07:44;;;;;;;11.85;4.35;;;;;;;;;;5009435;28;20049;-65
2023/05/27 00:10:14;;;;;;;10.50;3.83;;;;;;;;;;5009294;28;20153;-65
2023/05/27 00:12:45;;;;;;;13.73;4.88;;;;;;;;;;5009382;28;20056;-64
2023/05/27 00:15:17;;;;;;;12.43;4.35;;;;;;;;;;4977422;28;20409;-65
2023/05/27 00:17:47;;;;;;;9.93;4.30;;;;;;;;;;5009440;28;20050;-65
2023/05/27 00:20:19;;;;;;;11.90;3.75;;;;;;;;;;4976592;28;20061;-65
2023/05/27 00:22:50;;;;;;;13.35;4.70;;;;;;;;;;4996189;28;20107;-65
2023/05/27 00:25:21;;;;;;;13.50;4.60;;;;;;;;;;5013192;28;20139;-65
2023/05/27 00:27:51;;;;;;;10.48;4.78;;;;;;;;;;4973766;28;20054;-65
2023/05/27 00:30:22;;;;;;;11.38;4.82;;;;;;;;;;4973843;28;20055;-66
2023/05/27 00:33:05;;;;;;;11.98;5.22;;;;;;;;;;4973015;28;20058;-65
2023/05/27 00:35:35;;;;;;;13.15;5.15;;;;;;;;;;4973621;28;20069;-64
2023/05/27 00:38:06;;;;;;;15.52;5.10;;;;;;;;;;4954236;29;20067;-65
2023/05/27 00:40:39;;;;;;;12.23;4.35;;;;;;;;;;4954476;29;20074;-65
2023/05/27 00:43:09;;;;;;;11.25;4.68;;;;;;;;;;4954405;29;20082;-65
2023/05/27 00:45:40;;;;;;;10.90;4.57;;;;;;;;;;4954271;29;20066;-65
2023/05/27 00:48:10;;;;;;;14.30;4.15;;;;;;;;;;4938693;29;20047;-65
2023/05/27 00:50:41;;;;;;;7.68;3.78;;;;;;;;;;4881303;29;20059;-65
2023/05/27 00:53:11;;;;;;;10.95;4.07;;;;;;;;;;4905600;29;20056;-65
2023/05/27 00:55:41;;;;;;;7.40;3.70;;;;;;;;;;4915959;29;20515;-65
2023/05/27 00:58:12;;;;;;;11.50;3.67;;;;;;;;;;4919054;29;20056;-64
2023/05/27 01:00:42;;;;;;;13.25;4.50;;;;;;;;;;4950403;29;20055;-65
2023/05/27 01:03:13;;;;;;;9.90;4.78;;;;;;;;;;4935001;29;20518;-64
2023/05/27 01:05:45;;;;;;;12.73;5.13;;;;;;;;;;4934785;29;20075;-65
2023/05/27 01:08:39;;;;;;;13.48;5.85;;;;;;;;;;4934684;29;20071;-65
2023/05/27 01:11:12;;;;;;;12.18;5.35;;;;;;;;;;4953585;29;20422;-66
2023/05/27 01:13:56;;;;;;;11.23;5.45;;;;;;;;;;4954046;29;20064;-64
2023/05/27 01:16:30;;;;;;;11.48;5.25;;;;;;;;;;4921906;29;20071;-64
2023/05/27 01:19:03;;;;;;;11.02;4.68;;;;;;;;;;4921792;29;20341;-66
2023/05/27 01:21:39;;;;;;;15.88;5.22;;;;;;;;;;4938083;29;20097;-66
2023/05/27 01:24:09;;;;;;;11.57;5.40;;;;;;;;;;4937747;29;20067;-64
2023/05/27 01:26:40;;;;;;;17.50;5.35;;;;;;;;;;4934304;29;20047;-65
2023/05/27 01:29:10;;;;;;;12.35;4.90;;;;;;;;;;4948249;28;20192;-66
2023/05/27 01:31:53;;;;;;;12.82;5.15;;;;;;;;;;4989083;28;20061;-65
2023/05/27 01:34:35;;;;;;;11.70;5.03;;;;;;;;;;4991853;28;20066;-65
2023/05/27 01:37:09;;;;;;;11.68;4.95;;;;;;;;;;4945470;28;20449;-65
2023/05/27 01:39:41;;;;;;;15.25;4.55;;;;;;;;;;4975609;28;20089;-65
2023/05/27 01:42:12;;;;;;;12.38;4.53;;;;;;;;;;4937328;29;20062;-65
2023/05/27 01:44:43;;;;;;;14.68;4.90;;;;;;;;;;4933831;29;20047;-65
2023/05/27 01:47:13;;;;;;;8.57;3.95;;;;;;;;;;4949615;29;20056;-65
2023/05/27 01:49:44;;;;;;;13.68;4.70;;;;;;;;;;4933747;29;20051;-65
2023/05/27 01:52:35;;;;;;;11.18;4.45;;;;;;;;;;4883526;29;20056;-65
2023/05/27 01:55:26;;;;;;;10.75;4.00;;;;;;;;;;4895988;29;20067;-65
2023/05/27 01:57:56;;;;;;;9.50;4.07;;;;;;;;;;4858312;29;20564;-65
2023/05/27 02:00:27;;;;;;;12.85;4.30;;;;;;;;;;4858428;29;20064;-65
2023/05/27 02:02:57;;;;;;;8.27;3.28;;;;;;;;;;4858255;29;20073;-65
2023/05/27 02:05:28;;;;;;;9.23;3.45;;;;;;;;;;4857714;29;20049;-65
2023/05/27 02:07:58;;;;;;;9.63;3.42;;;;;;;;;;4854619;29;20180;-64
2023/05/27 02:10:29;;;;;;;8.38;3.42;;;;;;;;;;4876209;29;20048;-65
2023/05/27 02:12:59;;;;;;;8.52;4.10;;;;;;;;;;4876534;29;20103;-65
2023/05/27 02:15:29;;;;;;;7.10;3.47;;;;;;;;;;4858107;29;20049;-64
2023/05/27 02:18:00;;;;;;;28.00;12.45;;;;;;;;;;4857984;29;20054;-64
2023/05/27 02:20:30;;;;;;;25.25;10.55;;;;;;;;;;4839632;29;20049;-64
2023/05/27 02:23:04;;;;;;;21.00;9.05;;;;;;;;;;4855007;29;20525;-65
2023/05/27 02:25:34;;;;;;;17.15;7.65;;;;;;;;;;4853918;29;20054;-64
2023/05/27 02:28:06;;;;;;;16.05;6.97;;;;;;;;;;4876230;29;20057;-64
2023/05/27 02:30:38;;;;;;;16.58;6.28;;;;;;;;;;4857670;29;20057;-64
2023/05/27 02:33:08;;;;;;;15.68;6.68;;;;;;;;;;4857948;29;20068;-64
2023/05/27 02:35:38;;;;;;;15.38;7.03;;;;;;;;;;4882441;29;20060;-64
2023/05/27 02:38:08;;;;;;;15.93;7.25;;;;;;;;;;4857769;29;20502;-64
2023/05/27 02:40:39;;;;;;;18.80;8.07;;;;;;;;;;4857555;29;20509;-65
2023/05/27 02:43:10;;;;;;;14.68;7.35;;;;;;;;;;4850734;29;20048;-64
2023/05/27 02:45:40;;;;;;;10.25;5.47;;;;;;;;;;4845054;29;20061;-65
2023/05/27 02:48:11;;;;;;;19.88;5.43;;;;;;;;;;4885777;29;20404;-64
2023/05/27 02:50:41;;;;;;;10.43;4.07;;;;;;;;;;4885437;29;20052;-63
2023/05/27 02:53:31;;;;;;;8.63;3.50;;;;;;;;;;4925400;29;20161;-64
2023/05/27 02:56:01;;;;;;;9.48;3.92;;;;;;;;;;4901318;29;20059;-64
2023/05/27 02:58:51;;;;;;;7.63;3.58;;;;;;;;;;4898606;29;20053;-64
2023/05/27 03:01:22;;;;;;;8.25;4.07;;;;;;;;;;4894499;29;20736;-64
2023/05/27 03:03:52;;;;;;;12.07;5.95;;;;;;;;;;4913438;29;20527;-64
2023/05/27 03:06:22;;;;;;;11.48;4.20;;;;;;;;;;4843750;29;20060;-64
2023/05/27 03:08:52;;;;;;;11.85;4.60;;;;;;;;;;4825719;29;20074;-64
2023/05/27 03:11:22;;;;;;;7.30;3.92;;;;;;;;;;4820980;29;20077;-64
2023/05/27 03:13:52;;;;;;;7.28;3.15;;;;;;;;;;4821410;29;20075;-64
2023/05/27 03:16:22;;;;;;;6.63;2.67;;;;;;;;;;4852140;29;20510;-64
2023/05/27 03:18:53;;;;;;;5.47;2.65;;;;;;;;;;4875573;29;20516;-64
2023/05/27 03:21:23;;;;;;;4.40;2.40;;;;;;;;;;4875697;29;20049;-65
2023/05/27 03:23:53;;;;;;;9.32;2.13;;;;;;;;;;4856966;29;20060;-65
2023/05/27 03:26:23;;;;;;;4.18;1.88;;;;;;;;;;4857250;29;20053;-65
2023/05/27 03:28:55;;;;;;;5.07;1.95;;;;;;;;;;4825471;29;20096;-65
2023/05/27 03:31:25;;;;;;;4.28;1.63;;;;;;;;;;4826168;29;20057;-64
2023/05/27 03:34:02;;;;;;;9.40;1.90;;;;;;;;;;4838304;29;20054;-64
2023/05/27 03:36:34;;;;;;;4.97;1.83;;;;;;;;;;4836184;29;20061;-65
2023/05/27 03:39:20;;;;;;;8.25;1.58;;;;;;;;;;4827167;29;20058;-65
2023/05/27 03:41:56;;;;;;;3.20;1.67;;;;;;;;;;4850850;29;20052;-65
2023/05/27 03:44:26;;;;;;;6.45;1.80;;;;;;;;;;4844848;29;20058;-65
2023/05/27 03:46:56;;;;;;;4.70;1.90;;;;;;;;;;4823450;29;20070;-65
2023/05/27 03:49:46;;;;;;;4.78;1.67;;;;;;;;;;4843260;29;20058;-65
2023/05/27 03:52:19;;;;;;;5.18;1.75;;;;;;;;;;4838544;29;20061;-65
2023/05/27 03:54:49;;;;;;;3.15;1.63;;;;;;;;;;4853554;29;20183;-65
2023/05/27 03:57:19;;;;;;;4.50;1.58;;;;;;;;;;4877798;29;20072;-65
2023/05/27 03:59:49;;;;;;;3.65;1.70;;;;;;;;;;4894764;29;20517;-65
2023/05/27 04:02:37;;;;;;;6.60;1.60;;;;;;;;;;4879220;29;20075;-66
2023/05/27 04:05:21;;;;;;;4.30;1.77;;;;;;;;;;4879441;29;20421;-65
2023/05/27 04:07:52;;;;;;;4.13;1.83;;;;;;;;;;4894264;29;20135;-65
2023/05/27 04:10:22;;;;;;;5.80;1.70;;;;;;;;;;4867259;29;20517;-65
2023/05/27 04:12:56;;;;;;;5.80;2.60;;;;;;;;;;4942040;29;20054;-65
2023/05/27 04:15:26;;;;;;;3.85;1.65;;;;;;;;;;4888704;29;20428;-65
2023/05/27 04:17:58;;;;;;;5.78;2.40;;;;;;;;;;4954430;29;20548;-65
2023/05/27 04:20:36;;;;;;;3.35;1.42;;;;;;;;;;4877375;29;20058;-65
2023/05/27 04:23:08;;;;;;;5.88;1.58;;;;;;;;;;4991633;28;20073;-65
2023/05/27 04:25:39;;;;;;;4.90;2.10;;;;;;;;;;4954707;29;20420;-65
2023/05/27 04:28:13;;;;;;;3.05;1.83;;;;;;;;;;4881086;29;20058;-65
2023/05/27 04:30:47;;;;;;;6.57;1.85;;;;;;;;;;4859941;29;20050;-65
2023/05/27 04:33:31;;;;;;;6.35;1.83;;;;;;;;;;4868154;29;20058;-65
2023/05/27 04:36:02;;;;;;;7.43;2.35;;;;;;;;;;4825216;29;20418;-65
2023/05/27 04:38:40;;;;;;;4.50;1.70;;;;;;;;;;4850655;29;20054;-64
2023/05/27 04:41:11;;;;;;;5.25;1.83;;;;;;;;;;4841386;29;20519;-65
2023/05/27 04:43:48;;;;;;;5.25;1.88;;;;;;;;;;4856902;29;20075;-64
2023/05/27 04:46:21;;;;;;;4.10;1.73;;;;;;;;;;4878626;29;20049;-65
2023/05/27 04:48:53;;;;;;;5.30;2.00;;;;;;;;;;4915971;29;20056;-65
2023/05/27 04:51:23;;;;;;;4.57;1.80;;;;;;;;;;4931347;29;20060;-65
2023/05/27 04:53:54;;;;;;;3.45;1.60;;;;;;;;;;4935279;29;20071;-65
2023/05/27 04:56:24;;;;;;;4.18;2.05;;;;;;;;;;4903915;29;20051;-65
2023/05/27 04:58:55;;;;;;;7.20;2.08;;;;;;;;;;4934745;29;20052;-65
2023/05/27 05:01:48;;;;;;;7.18;2.38;;;;;;;;;;4900471;29;20044;-65
2023/05/27 05:04:24;;;;;;;3.47;1.67;;;;;;;;;;4907690;29;20409;-65
2023/05/27 05:07:01;;;;;;;4.68;1.90;;;;;;;;;;4877420;29;20057;-64
2023/05/27 05:09:33;;;;;;;7.90;1.98;;;;;;;;;;4923917;29;20108;-65
2023/05/27 05:12:10;;;;;;;5.50;2.17;;;;;;;;;;4896566;29;20056;-65
2023/05/27 05:14:43;;;;;;;4.30;1.80;;;;;;;;;;4912566;29;20053;-64
2023/05/27 05:17:13;;;;;;;4.18;1.83;;;;;;;;;;4896305;29;20063;-65
2023/05/27 05:19:45;;;;;;;3.97;1.77;;;;;;;;;;4934155;29;20047;-65
2023/05/27 05:22:18;;;;;;;7.55;2.05;;;;;;;;;;4896047;29;20127;-65
2023/05/27 05:24:50;;;;;;;5.78;2.00;;;;;;;;;;4880922;29;20049;-64
2023/05/27 05:27:28;;;;;;;3.58;1.83;;;;;;;;;;4844650;29;20054;-64
2023/05/27 05:29:59;;;;;;;5.22;2.00;;;;;;;;;;4825474;29;20414;-65
2023/05/27 05:32:29;;;;;;;6.88;2.10;;;;;;;;;;4858917;29;20053;-65
2023/05/27 05:35:00;;;;;;;6.68;2.03;;;;;;;;;;4858832;29;20073;-64
2023/05/27 05:37:30;;;;;;;4.45;2.30;;;;;;;;;;4811800;29;20082;-65
2023/05/27 05:40:01;;;;;;;6.57;2.22;;;;;;;;;;4858096;29;20407;-65
2023/05/27 05:42:35;;;;;;;4.03;1.77;;;;;;;;;;4840166;29;20525;-65
2023/05/27 05:45:08;;;;;;;4.93;1.95;;;;;;;;;;4843430;29;20049;-64
2023/05/27 05:47:41;;;;;;;5.43;1.70;;;;;;;;;;4864397;29;20066;-65
2023/05/27 05:50:15;;;;;;;6.93;2.05;;;;;;;;;;4870912;29;20057;-64
2023/05/27 05:52:49;;;;;;;8.43;2.10;;;;;;;;;;4876777;29;20060;-64
2023/05/27 05:55:19;;;;;;;6.25;1.73;;;;;;;;;;4876958;29;20502;-65
2023/05/27 05:57:50;;;;;;;4.72;1.50;;;;;;;;;;4827574;29;20057;-65
2023/05/27 06:00:20;;;;;;;3.70;1.70;;;;;;;;;;4833524;29;20063;-65
2023/05/27 06:02:55;;;;;;;5.47;1.73;;;;;;;;;;4866237;29;20073;-66
2023/05/27 06:05:43;;;;;;;6.22;2.17;;;;;;;;;;4863442;29;20096;-65
2023/05/27 06:08:13;;;;;;;5.40;2.08;;;;;;;;;;4839798;29;20067;-65
2023/05/27 06:10:51;;;;;;;6.70;2.30;;;;;;;;;;4782936;29;20062;-65
2023/05/27 06:13:21;;;;;;;3.03;1.60;;;;;;;;;;4851026;29;20054;-65
2023/05/27 06:15:57;;;;;;;5.15;1.80;;;;;;;;;;4815012;29;20427;-65
2023/05/27 06:18:28;;;;;;;6.18;1.63;;;;;;;;;;4836129;29;20058;-64
2023/05/27 06:21:11;;;;;;;6.47;2.42;;;;;;;;;;4857276;29;20057;-65
2023/05/27 06:24:19;;;;;;;7.50;1.85;;;;;;;;;;4873992;29;20049;-64
2023/05/27 06:26:55;;;;;;;2.90;1.50;;;;;;;;;;4874988;29;20056;-65
2023/05/27 06:29:25;;;;;;;3.75;1.70;;;;;;;;;;4839423;29;20186;-65
2023/05/27 06:31:55;;;;;;;4.88;2.00;;;;;;;;;;4841895;29;20054;-65
2023/05/27 06:34:26;;;;;;;6.75;1.80;;;;;;;;;;4839373;29;20572;-65
2023/05/27 06:36:57;;;;;;;7.72;1.80;;;;;;;;;;4857496;29;20068;-65
2023/05/27 06:39:28;;;;;;;5.30;1.67;;;;;;;;;;4872080;29;20053;-65
2023/05/27 06:41:58;;;;;;;3.70;1.70;;;;;;;;;;4839451;29;20069;-64
2023/05/27 06:44:49;;;;;;;6.38;1.70;;;;;;;;;;4839313;29;20054;-64
2023/05/27 06:47:24;;;;;;;4.38;2.22;;;;;;;;;;4850448;29;20461;-64
2023/05/27 06:49:54;;;;;;;8.60;1.92;;;;;;;;;;4905922;29;20057;-65
2023/05/27 06:52:25;;;;;;;6.07;1.73;;;;;;;;;;4875812;29;20049;-65
2023/05/27 06:55:13;;;;;;;4.82;2.00;;;;;;;;;;4892269;29;20079;-65
2023/05/27 06:58:14;;;;;;;4.53;1.73;;;;;;;;;;4841134;29;20058;-65
2023/05/27 07:01:00;;;;;;;6.68;1.90;;;;;;;;;;4857485;29;20053;-65
2023/05/27 07:03:36;;;;;;;5.85;1.67;;;;;;;;;;4860129;29;20058;-65
2023/05/27 07:06:44;;;;;;;4.30;1.90;;;;;;;;;;4864071;29;20101;-64
2023/05/27 07:09:15;;;;;;;4.05;1.65;;;;;;;;;;4841875;29;20053;-64
2023/05/27 07:11:45;;;;;;;4.95;1.90;;;;;;;;;;4875777;29;20049;-65
2023/05/27 07:14:36;;;;;;;4.80;1.80;;;;;;;;;;4841816;29;20534;-64
2023/05/27 07:17:07;;;;;;;7.80;1.70;;;;;;;;;;4858081;29;20057;-64
2023/05/27 07:19:39;;;;;;;5.03;1.40;;;;;;;;;;4834953;29;20054;-65
2023/05/27 07:22:15;;;;;;;8.18;1.95;;;;;;;;;;4844505;29;20055;-65
2023/05/27 07:24:46;;;;;;;5.10;2.20;;;;;;;;;;4861530;29;20054;-65
2023/05/27 07:27:17;;;;;;;4.28;1.30;;;;;;;;;;4840969;29;20058;-64
2023/05/27 07:29:55;;;;;;;4.47;1.75;;;;;;;;;;4856913;29;20060;-64
2023/05/27 07:32:41;;;;;;;4.00;1.73;;;;;;;;;;4854891;29;20045;-65
2023/05/27 07:35:11;;;;;;;5.47;1.73;;;;;;;;;;4856979;29;20061;-65
2023/05/27 07:37:41;;;;;;;4.05;1.70;;;;;;;;;;4867701;29;20058;-65
2023/05/27 07:40:12;;;;;;;4.55;2.10;;;;;;;;;;4841488;29;20402;-64
2023/05/27 07:42:43;;;;;;;6.75;1.90;;;;;;;;;;4875226;29;20055;-63
2023/05/27 07:45:14;;;;;;;6.50;2.10;;;;;;;;;;4838498;29;20065;-64
2023/05/27 07:47:46;;;;;;;3.17;1.48;;;;;;;;;;4841463;29;20547;-63
2023/05/27 07:50:16;;;;;;;6.85;2.13;;;;;;;;;;4820320;29;20419;-63
2023/05/27 07:53:06;;;;;;;6.20;2.13;;;;;;;;;;4820553;29;20062;-65
2023/05/27 07:55:39;;;;;;;6.68;1.92;;;;;;;;;;4805053;29;20436;-63
2023/05/27 07:58:10;;;;;;;3.75;1.67;;;;;;;;;;4802243;29;20504;-62
2023/05/27 08:00:58;;;;;;;4.45;1.63;;;;;;;;;;4802774;29;20063;-63
2023/05/27 08:03:29;;;;;;;7.70;2.03;;;;;;;;;;4813008;29;20084;-62
2023/05/27 08:06:07;;;;;;;4.07;1.77;;;;;;;;;;4856489;29;20053;-62
2023/05/27 08:08:52;;;;;;;7.40;2.15;;;;;;;;;;4856646;29;20544;-63
2023/05/27 08:11:56;;;;;;;5.63;2.22;;;;;;;;;;4860820;29;20066;-61
2023/05/27 08:14:46;;;;;;;7.30;1.58;;;;;;;;;;4890049;29;20057;-62
2023/05/27 08:17:34;;;;;;;4.38;1.65;;;;;;;;;;4875617;29;20057;-62
2023/05/27 08:20:08;;;;;;;3.08;1.38;;;;;;;;;;4875267;29;20049;-62
2023/05/27 08:22:56;;;;;;;3.00;1.17;;;;;;;;;;4885361;29;20048;-62
2023/05/27 08:25:49;;;;;;;2.80;1.27;;;;;;;;;;4906591;29;20048;-62
2023/05/27 08:28:36;;;;;;;2.85;0.95;;;;;;;;;;4912681;29;20048;-62
2023/05/27 08:31:25;;;;;;;2.00;1.00;;;;;;;;;;4886565;29;20056;-63
2023/05/27 08:33:59;;;;;;;3.58;0.60;;;;;;;;;;4931443;29;20044;-63
2023/05/27 08:36:31;;;;;;;1.17;0.63;;;;;;;;;;4912276;29;20052;-62
2023/05/27 08:39:02;;;;;;;2.72;0.57;;;;;;;;;;4912699;29;20634;-63
2023/05/27 08:41:42;;;;;;;1.30;0.70;;;;;;;;;;4888797;29;20093;-63
2023/05/27 08:44:13;;;;;;;3.35;0.60;;;;;;;;;;4862611;29;20053;-61
2023/05/27 08:46:51;;;;;;;2.85;0.68;;;;;;;;;;4867326;29;20061;-63
2023/05/27 08:49:21;;;;;;;2.95;0.52;;;;;;;;;;4841293;29;20054;-62
2023/05/27 08:51:52;;;;;;;1.15;0.35;;;;;;;;;;4849100;29;20065;-63
2023/05/27 08:54:24;;;;;;;2.45;0.43;;;;;;;;;;4856191;29;20442;-63
2023/05/27 08:57:00;;;;;;;0.88;0.30;;;;;;;;;;4841297;29;20391;-61
2023/05/27 08:59:30;;;;;;;0.70;0.30;;;;;;;;;;4833954;29;20538;-62
2023/05/27 09:02:02;;;;;;;0.90;0.30;;;;;;;;;;4822816;29;20055;-62
2023/05/27 09:04:32;;;;;;;1.10;0.38;;;;;;;;;;4852772;29;20054;-62
2023/05/27 09:07:02;;;;;;;1.15;0.30;;;;;;;;;;4822911;29;20589;-64
2023/05/27 09:09:33;;;;;;;0.50;0.30;;;;;;;;;;4838059;29;20529;-63
2023/05/27 09:12:04;;;;;;;0.73;0.40;;;;;;;;;;4835461;29;20062;-61
2023/05/27 09:14:37;;;;;;;2.15;0.60;;;;;;;;;;4841243;29;20058;-61
2023/05/27 09:17:09;;;;;;;1.65;0.47;;;;;;;;;;4841122;29;20502;-61
2023/05/27 09:19:39;;;;;;;1.63;0.60;;;;;;;;;;4852623;29;20115;-61
2023/05/27 09:22:09;;;;;;;3.08;0.40;;;;;;;;;;4873504;29;20599;-62
2023/05/27 09:24:39;;;;;;;1.60;0.43;;;;;;;;;;4896763;29;20057;-61
2023/05/27 09:27:10;;;;;;;1.35;0.45;;;;;;;;;;4907058;29;20530;-61
2023/05/27 09:29:43;;;;;;;0.95;0.20;;;;;;;;;;4915580;29;20056;-62
2023/05/27 09:32:23;;;;;;;0.68;0.38;;;;;;;;;;4945278;29;20491;-62
2023/05/27 09:35:00;;;;;;;1.13;0.70;;;;;;;;;;4977879;28;20055;-63
2023/05/27 09:37:32;;;;;;;1.55;0.63;;;;;;;;;;4975295;28;20058;-63
2023/05/27 09:40:12;;;;;;;2.28;0.30;;;;;;;;;;4985405;28;20050;-61
2023/05/27 09:42:49;;;;;;;0.93;0.40;;;;;;;;;;4993458;28;20060;-62
2023/05/27 09:45:21;;;;;;;;;;;;;;;;;;5011999;28;20078;-62
2023/05/27 09:47:54;;;;;;;1.08;0.40;;;;;;;;;;5011731;28;19921;-63
2023/05/27 09:50:25;;;;;;;1.25;0.30;;;;;;;;;;5012230;28;20744;-62
2023/05/27 09:52:56;;;;;;;1.60;0.30;;;;;;;;;;4962963;28;20065;-62
2023/05/27 09:55:43;;;;;;;2.33;0.32;;;;;;;;;;4995162;28;20045;-63
2023/05/27 09:58:14;;;;;;;1.08;0.47;;;;;;;;;;4978475;28;20422;-62
2023/05/27 10:00:47;;;;;;;0.95;0.30;;;;;;;;;;5011577;28;20544;-62
2023/05/27 10:03:21;;;;;;;5.13;1.52;;;;;;;;;;5011569;28;20489;-64
2023/05/27 10:05:52;;;;;;;1.42;0.80;;;;;;;;;;5011371;28;20531;-62
2023/05/27 10:08:23;;;;;;;0.70;0.40;;;;;;;;;;4931606;28;20057;-60
2023/05/27 10:10:54;;;;;;;1.88;0.50;;;;;;;;;;4997832;28;20156;-60
2023/05/27 10:13:27;;;;;;;1.52;0.80;;;;;;;;;;5014287;28;20049;-60
2023/05/27 10:15:57;;;;;;;0.70;0.30;;;;;;;;;;5011071;28;20067;-60
2023/05/27 10:18:52;;;;;;;1.13;0.30;;;;;;;;;;5003541;28;20056;-62
2023/05/27 10:21:27;;;;;;;1.30;0.80;;;;;;;;;;5014610;28;20053;-60
2023/05/27 10:24:01;;;;;;;0.85;0.40;;;;;;;;;;5030824;28;20057;-60
2023/05/27 10:26:44;;;;;;;1.75;0.60;;;;;;;;;;5030437;28;20065;-60
2023/05/27 10:29:17;;;;;;;2.40;0.90;;;;;;;;;;5014127;28;20045;-59
2023/05/27 10:32:00;;;;;;;1.40;0.68;;;;;;;;;;5015209;28;20060;-60
2023/05/27 10:34:46;;;;;;;1.75;0.80;;;;;;;;;;5013786;28;20050;-59
2023/05/27 10:37:23;;;;;;;2.15;0.98;;;;;;;;;;5013761;28;20064;-60
2023/05/27 10:39:58;;;;;;;1.95;1.40;;;;;;;;;;5030277;28;20041;-61
2023/05/27 10:42:28;;;;;;;3.08;1.40;;;;;;;;;;5013960;28;20049;-61
2023/05/27 10:45:12;;;;;;;2.88;1.00;;;;;;;;;;5030094;28;20049;-61
2023/05/27 10:47:46;;;;;;;2.67;1.05;;;;;;;;;;5030180;28;20393;-61
2023/05/27 10:50:16;;;;;;;4.07;1.52;;;;;;;;;;4981449;28;20060;-60
2023/05/27 10:52:48;;;;;;;2.17;1.15;;;;;;;;;;5030266;28;20057;-62
2023/05/27 10:55:21;;;;;;;12.02;5.70;;;;;;;;;;5030065;28;20057;-61
2023/05/27 10:57:53;;;;;;;4.57;1.63;;;;;;;;;;5032195;28;20052;-62
2023/05/27 11:00:37;;;;;;;1.63;0.80;;;;;;;;;;5027311;28;20060;-62
2023/05/27 11:03:28;;;;;;;1.35;0.60;;;;;;;;;;5049860;28;20053;-62
2023/05/27 11:06:06;;;;;;;2.35;1.05;;;;;;;;;;5049304;28;20053;-63
2023/05/27 11:08:37;;;;;;;7.35;2.55;;;;;;;;;;5019377;28;20460;-61
2023/05/27 11:11:09;;;;;;;5.40;2.33;;;;;;;;;;5017598;28;20531;-61
2023/05/27 11:13:46;;;;;;;4.35;1.40;;;;;;;;;;5049640;28;20060;-60
2023/05/27 11:16:17;;;;;;;3.53;1.70;;;;;;;;;;5049772;28;20052;-61
2023/05/27 11:19:11;;;;;;;3.45;1.30;;;;;;;;;;5029517;28;20057;-61
2023/05/27 11:22:01;;;;;;;4.03;1.50;;;;;;;;;;4941512;28;20046;-62
2023/05/27 11:24:31;;;;;;;2.70;1.27;;;;;;;;;;4958005;28;20394;-62
2023/05/27 11:27:10;;;;;;;7.55;2.45;;;;;;;;;;4989886;28;20512;-63
2023/05/27 11:29:53;;;;;;;4.13;2.53;;;;;;;;;;4990037;28;20046;-62
2023/05/27 11:32:23;;;;;;;3.10;1.38;;;;;;;;;;4942305;28;20073;-63
2023/05/27 11:35:15;;;;;;;3.00;0.80;;;;;;;;;;4990026;28;20054;-61
2023/05/27 11:37:55;;;;;;;3.72;1.30;;;;;;;;;;4916510;29;20063;-61
2023/05/27 11:40:25;;;;;;;1.67;1.25;;;;;;;;;;4896664;29;20056;-61
2023/05/27 11:43:01;;;;;;;2.40;1.10;;;;;;;;;;4913139;29;20075;-62
2023/05/27 11:45:37;;;;;;;2.78;1.30;;;;;;;;;;4881880;29;20056;-63
2023/05/27 11:48:21;;;;;;;3.80;1.48;;;;;;;;;;4900127;29;20056;-61
2023/05/27 11:50:55;;;;;;;1.52;0.82;;;;;;;;;;4897863;29;20063;-62
2023/05/27 11:53:29;;;;;;;3.60;1.77;;;;;;;;;;4882857;29;20064;-63
2023/05/27 11:56:20;;;;;;;11.85;4.03;;;;;;;;;;4853424;29;20057;-63
2023/05/27 11:58:50;;;;;;;9.57;4.47;;;;;;;;;;4910264;28;20419;-65
2023/05/27 12:01:20;;;;;;;3.55;1.85;;;;;;;;;;4901155;29;20048;-63
2023/05/27 12:04:03;;;;;;;4.15;2.42;;;;;;;;;;4901500;29;20048;-63
2023/05/27 12:06:34;;;;;;;3.75;2.35;;;;;;;;;;4896620;29;20098;-62
2023/05/27 12:09:05;;;;;;;2.65;1.30;;;;;;;;;;4903144;29;20067;-62
2023/05/27 12:11:39;;;;;;;2.88;1.35;;;;;;;;;;4932086;29;20059;-62
2023/05/27 12:14:09;;;;;;;4.78;2.47;;;;;;;;;;4916921;28;20079;-62
2023/05/27 12:16:39;;;;;;;4.63;3.03;;;;;;;;;;4989424;28;20076;-62
2023/05/27 12:19:11;;;;;;;3.90;2.63;;;;;;;;;;4992673;28;20058;-62
2023/05/27 12:21:41;;;;;;;3.25;1.65;;;;;;;;;;4993639;28;20749;-62
2023/05/27 12:24:12;;;;;;;7.40;2.30;;;;;;;;;;4976914;28;20062;-62
2023/05/27 12:26:42;;;;;;;15.65;5.57;;;;;;;;;;5008638;28;20058;-61
2023/05/27 12:29:12;;;;;;;17.85;6.85;;;;;;;;;;4996274;28;20053;-62
2023/05/27 12:31:42;;;;;;;12.82;5.57;;;;;;;;;;4980728;28;20065;-62
2023/05/27 12:34:12;;;;;;;9.32;3.22;;;;;;;;;;5012593;28;20054;-62
2023/05/27 12:36:42;;;;;;;8.93;3.92;;;;;;;;;;5022164;28;20045;-62
2023/05/27 12:39:12;;;;;;;11.05;4.80;;;;;;;;;;5027620;28;20481;-62
2023/05/27 12:41:42;;;;;;;7.85;3.80;;;;;;;;;;5035772;28;20523;-62
2023/05/27 12:44:13;;;;;;;9.50;4.63;;;;;;;;;;5052494;28;20152;-62
2023/05/27 12:46:43;;;;;;;10.88;4.10;;;;;;;;;;5051630;28;20057;-63
2023/05/27 12:49:13;;;;;;;9.07;3.90;;;;;;;;;;5019875;28;20060;-62
2023/05/27 12:51:43;;;;;;;11.50;4.47;;;;;;;;;;5052447;28;20045;-62
2023/05/27 12:54:13;;;;;;;11.68;4.43;;;;;;;;;;5062932;28;20053;-61
2023/05/27 12:56:43;;;;;;;13.30;5.53;;;;;;;;;;5057213;28;20501;-62
2023/05/27 12:59:13;;;;;;;27.40;11.52;;;;;;;;;;5055336;28;20410;-62
2023/05/27 13:01:44;;;;;;;69.93;30.98;;;;;;;;;;5051667;28;20048;-62
2023/05/27 13:04:14;;;;;;;17.48;7.55;;;;;;;;;;5051831;28;20401;-63
2023/05/27 13:06:45;;;;;;;12.75;4.80;;;;;;;;;;5019130;28;20053;-64
2023/05/27 13:09:29;;;;;;;9.77;3.67;;;;;;;;;;5036658;28;20076;-62
2023/05/27 13:11:59;;;;;;;8.20;2.78;;;;;;;;;;5035221;28;20045;-63
2023/05/27 13:14:29;;;;;;;7.75;2.80;;;;;;;;;;5051759;28;20057;-63
2023/05/27 13:16:59;;;;;;;10.40;4.63;;;;;;;;;;5035082;28;20052;-63
2023/05/27 13:19:32;;;;;;;11.68;5.05;;;;;;;;;;5051841;28;20057;-63
2023/05/27 13:22:03;;;;;;;14.38;5.40;;;;;;;;;;5060790;28;20044;-62
2023/05/27 13:24:33;;;;;;;12.25;5.40;;;;;;;;;;5071792;28;20040;-62
2023/05/27 13:27:04;;;;;;;27.08;13.05;;;;;;;;;;5021489;28;20753;-63
2023/05/27 13:29:35;;;;;;;24.73;11.30;;;;;;;;;;5071420;28;20064;-62
2023/05/27 13:32:06;;;;;;;9.05;4.53;;;;;;;;;;5071368;28;20520;-62
2023/05/27 13:34:37;;;;;;;16.58;8.88;;;;;;;;;;5055020;28;20512;-61
2023/05/27 13:37:07;;;;;;;5.72;2.83;;;;;;;;;;5071022;28;20075;-62
2023/05/27 13:39:42;;;;;;;9.82;4.25;;;;;;;;;;5085807;28;20056;-62
2023/05/27 13:42:13;;;;;;;9.23;4.45;;;;;;;;;;5024938;28;20055;-63
2023/05/27 13:44:43;;;;;;;12.13;5.75;;;;;;;;;;5058951;28;20052;-63
2023/05/27 13:47:13;;;;;;;9.20;1.90;;;;;;;;;;5021033;28;20045;-63
2023/05/27 13:49:44;;;;;;;3.95;1.83;;;;;;;;;;4988558;28;20052;-63
2023/05/27 13:52:14;;;;;;;3.58;1.63;;;;;;;;;;5070749;28;20057;-62
2023/05/27 13:54:44;;;;;;;5.15;2.50;;;;;;;;;;5071194;28;20059;-62
2023/05/27 13:57:15;;;;;;;6.07;2.42;;;;;;;;;;5021519;28;20467;-62
2023/05/27 13:59:45;;;;;;;10.48;5.03;;;;;;;;;;5070703;28;20064;-63
2023/05/27 14:02:15;;;;;;;12.73;4.85;;;;;;;;;;5054262;28;20099;-64
2023/05/27 14:04:46;;;;;;;10.38;3.60;;;;;;;;;;5070918;28;20052;-62
2023/05/27 14:07:29;;;;;;;8.82;3.63;;;;;;;;;;5011406;28;20095;-63
2023/05/27 14:09:59;;;;;;;7.90;3.75;;;;;;;;;;5037416;28;20408;-63
2023/05/27 14:12:30;;;;;;;9.35;4.15;;;;;;;;;;5070554;28;20388;-63
2023/05/27 14:15:01;;;;;;;10.88;6.13;;;;;;;;;;5070940;28;20045;-61
2023/05/27 14:17:31;;;;;;;8.23;3.20;;;;;;;;;;5038214;28;20451;-62
2023/05/27 14:20:02;;;;;;;8.13;3.88;;;;;;;;;;5070724;28;20048;-63
2023/05/27 14:22:32;;;;;;;7.82;3.97;;;;;;;;;;5053507;28;20392;-62
2023/05/27 14:25:03;;;;;;;10.70;3.53;;;;;;;;;;5083754;28;20059;-62
2023/05/27 14:27:33;;;;;;;8.40;2.92;;;;;;;;;;5092931;28;20507;-60
2023/05/27 14:30:05;;;;;;;7.40;3.75;;;;;;;;;;5092867;28;20047;-61
2023/05/27 14:32:34;;;;;;;;;;;;;;;;;;5070703;28;20060;-62
2023/05/27 14:35:05;;;;;;;4.20;2.50;;;;;;;;;;5020254;28;20020;-63
2023/05/27 14:37:35;;;;;;;3.50;1.80;;;;;;;;;;5069933;28;20455;-61
2023/05/27 14:40:07;;;;;;;3.20;1.70;;;;;;;;;;5069595;28;20044;-60
2023/05/27 14:42:37;;;;;;;6.85;3.20;;;;;;;;;;5037108;28;20052;-61
2023/05/27 14:45:10;;;;;;;4.25;1.65;;;;;;;;;;5070071;28;20586;-60
2023/05/27 14:47:40;;;;;;;2.97;1.58;;;;;;;;;;5070231;28;20049;-62
2023/05/27 14:50:30;;;;;;;5.10;2.13;;;;;;;;;;5016859;28;20053;-62
2023/05/27 14:53:00;;;;;;;5.90;2.38;;;;;;;;;;5030010;28;20053;-60
2023/05/27 14:55:31;;;;;;;3.92;1.95;;;;;;;;;;4981221;28;20053;-63
2023/05/27 14:58:01;;;;;;;3.75;1.60;;;;;;;;;;5029892;28;20057;-61
2023/05/27 15:00:31;;;;;;;4.85;1.95;;;;;;;;;;5029831;28;20061;-61
2023/05/27 15:03:01;;;;;;;4.78;2.40;;;;;;;;;;4989966;28;20522;-60
2023/05/27 15:05:31;;;;;;;4.93;2.50;;;;;;;;;;4974589;28;20414;-60
2023/05/27 15:08:05;;;;;;;5.13;1.73;;;;;;;;;;4990385;28;20070;-60
2023/05/27 15:10:35;;;;;;;4.10;1.90;;;;;;;;;;5003769;28;20053;-60
2023/05/27 15:13:05;;;;;;;2.47;1.20;;;;;;;;;;5006200;28;20061;-60
2023/05/27 15:15:57;;;;;;;4.47;1.48;;;;;;;;;;4977477;28;20501;-61
2023/05/27 15:18:27;;;;;;;2.28;1.20;;;;;;;;;;4935382;29;20062;-62
2023/05/27 15:20:57;;;;;;;1.63;0.90;;;;;;;;;;4920757;29;20047;-61
2023/05/27 15:23:27;;;;;;;3.30;1.10;;;;;;;;;;4951661;29;20051;-61